createdAt,value
2023-01-04T00:00:08.045Z,47.23
2023-01-04T00:02:36.009Z,47.29
2023-01-04T00:05:05.295Z,47.26
2023-01-04T00:07:33.006Z,47.25
2023-01-04T00:10:00.608Z,47.12
2023-01-04T00:12:28.622Z,47.28
2023-01-04T00:14:56.270Z,47.29
2023-01-04T00:17:23.972Z,47.24
2023-01-04T00:19:51.668Z,47.28
2023-01-04T00:22:20.708Z,47.13
2023-01-04T00:24:48.711Z,47.21
2023-01-04T00:27:16.323Z,47.30
2023-01-04T00:29:45.362Z,47.30
2023-01-04T00:32:13.319Z,47.29
2023-01-04T00:34:41.068Z,47.42
2023-01-04T00:37:08.749Z,47.42
2023-01-04T00:39:37.831Z,47.41
2023-01-04T00:42:06.167Z,47.21
2023-01-04T00:44:34.453Z,47.43
2023-01-04T00:47:02.724Z,47.34
2023-01-04T00:49:30.640Z,47.21
2023-01-04T00:51:58.555Z,47.32
2023-01-04T00:54:26.247Z,47.29
2023-01-04T00:56:55.294Z,47.28
2023-01-04T00:59:23.181Z,47.32
2023-01-04T01:01:51.183Z,47.31
2023-01-04T01:04:19.707Z,47.20
2023-01-04T01:06:47.687Z,47.32
2023-01-04T01:09:15.332Z,47.34
2023-01-04T01:11:43.069Z,47.17
2023-01-04T01:14:13.750Z,47.22
2023-01-04T01:16:58.549Z,47.20
2023-01-04T01:19:26.839Z,47.22
2023-01-04T01:21:54.592Z,47.23
2023-01-04T01:24:22.166Z,47.24
2023-01-04T01:26:49.898Z,47.27
2023-01-04T01:29:19.236Z,47.29
2023-01-04T01:31:46.958Z,47.26
2023-01-04T01:34:14.991Z,47.18
2023-01-04T01:36:42.735Z,47.33
2023-01-04T01:39:10.431Z,47.21
2023-01-04T01:41:38.016Z,47.32
2023-01-04T01:44:06.879Z,47.24
2023-01-04T01:46:37.244Z,47.26
2023-01-04T01:49:06.208Z,47.32
2023-01-04T01:51:34.095Z,47.20
2023-01-04T01:54:03.115Z,47.38
2023-01-04T01:56:30.773Z,47.31
2023-01-04T01:58:58.392Z,47.30
2023-01-04T02:01:26.246Z,47.30
2023-01-04T02:03:55.400Z,47.30
2023-01-04T02:06:23.747Z,47.26
2023-01-04T02:08:51.354Z,47.42
2023-01-04T02:11:18.976Z,47.28
2023-01-04T02:14:03.961Z,47.26
2023-01-04T02:16:36.142Z,47.36
2023-01-04T02:19:07.161Z,47.31
2023-01-04T02:21:36.386Z,47.36
2023-01-04T02:24:11.819Z,47.17
2023-01-04T02:26:54.237Z,47.18
2023-01-04T02:29:48.696Z,47.25
2023-01-04T02:32:18.650Z,47.25
2023-01-04T02:34:47.547Z,47.10
2023-01-04T02:37:18.727Z,47.08
2023-01-04T02:39:48.721Z,47.13
2023-01-04T02:42:17.701Z,47.02
2023-01-04T02:44:54.415Z,47.14
2023-01-04T02:47:44.213Z,47.16
2023-01-04T02:50:31.279Z,47.04
2023-01-04T02:52:58.964Z,47.05
2023-01-04T02:55:26.847Z,47.17
2023-01-04T02:57:55.461Z,47.17
2023-01-04T03:00:28.965Z,47.12
2023-01-04T03:03:23.548Z,47.07
2023-01-04T03:06:09.773Z,47.16
2023-01-04T03:08:38.469Z,47.28
2023-01-04T03:11:28.900Z,47.23
2023-01-04T03:13:55.549Z,47.09
2023-01-04T03:16:23.481Z,47.15
2023-01-04T03:18:53.247Z,47.15
2023-01-04T03:21:20.926Z,47.11
2023-01-04T03:24:05.871Z,47.02
2023-01-04T03:26:50.739Z,47.08
2023-01-04T03:29:36.414Z,47.00
2023-01-04T03:32:22.897Z,47.08
2023-01-04T03:35:09.239Z,47.15
2023-01-04T03:37:38.523Z,47.01
2023-01-04T03:40:31.651Z,47.03
2023-01-04T03:43:21.081Z,47.13
2023-01-04T03:46:06.871Z,47.11
2023-01-04T03:48:35.725Z,47.21
2023-01-04T03:51:08.562Z,47.08
2023-01-04T03:53:37.523Z,47.13
2023-01-04T03:56:05.563Z,47.06
2023-01-04T03:58:33.393Z,47.03
2023-01-04T04:01:03.905Z,47.20
2023-01-04T04:03:49.386Z,47.21
2023-01-04T04:06:35.537Z,47.20
2023-01-04T04:09:03.457Z,47.07
2023-01-04T04:11:33.923Z,47.13
2023-01-04T04:14:01.839Z,47.11
2023-01-04T04:16:29.589Z,47.06
2023-01-04T04:18:57.255Z,47.21
2023-01-04T04:21:26.229Z,47.14
2023-01-04T04:23:55.407Z,47.02
2023-01-04T04:26:23.537Z,47.01
2023-01-04T04:28:51.153Z,47.08
2023-01-04T04:31:18.863Z,47.07
2023-01-04T04:33:46.493Z,47.13
2023-01-04T04:36:14.074Z,47.01
2023-01-04T04:38:42.998Z,47.13
2023-01-04T04:41:28.347Z,47.03
2023-01-04T04:43:56.015Z,46.73
2023-01-04T04:46:23.684Z,46.81
2023-01-04T04:48:51.480Z,46.85
2023-01-04T04:51:19.165Z,46.98
2023-01-04T04:53:48.498Z,46.88
2023-01-04T04:56:16.353Z,47.09
2023-01-04T04:58:44.001Z,47.04
2023-01-04T05:01:11.689Z,46.98
2023-01-04T05:03:39.583Z,46.81
2023-01-04T05:06:07.320Z,47.02
2023-01-04T05:08:35.150Z,47.18
2023-01-04T05:11:06.782Z,47.10
2023-01-04T05:13:33.660Z,47.00
2023-01-04T05:16:01.644Z,47.02
2023-01-04T05:18:29.383Z,47.15
2023-01-04T05:20:57.207Z,47.10
2023-01-04T05:23:24.864Z,47.08
2023-01-04T05:25:52.900Z,47.08
2023-01-04T05:28:21.919Z,47.04
2023-01-04T05:30:51.979Z,47.13
2023-01-04T05:33:20.145Z,47.01
2023-01-04T05:35:47.803Z,46.91
2023-01-04T05:38:15.512Z,46.90
2023-01-04T05:40:43.148Z,47.08
2023-01-04T05:43:10.843Z,47.14
2023-01-04T05:45:39.889Z,46.97
2023-01-04T05:48:07.507Z,47.19
2023-01-04T05:50:35.294Z,47.05
2023-01-04T05:53:05.398Z,46.93
2023-01-04T05:55:32.988Z,47.10
2023-01-04T05:58:00.802Z,46.99
2023-01-04T06:00:28.412Z,46.89
2023-01-04T06:02:57.475Z,46.93
2023-01-04T06:05:25.433Z,46.99
2023-01-04T06:07:53.083Z,46.86
2023-01-04T06:10:20.916Z,46.92
2023-01-04T06:12:48.487Z,46.89
2023-01-04T06:15:16.097Z,46.99
2023-01-04T06:17:43.723Z,47.01
2023-01-04T06:20:12.904Z,47.02
2023-01-04T06:22:41.559Z,46.91
2023-01-04T06:25:09.585Z,46.87
2023-01-04T06:27:37.404Z,46.84
2023-01-04T06:30:05.248Z,46.86
2023-01-04T06:32:33.222Z,46.97
2023-01-04T06:35:00.841Z,46.90
2023-01-04T06:37:29.814Z,46.91
2023-01-04T06:39:57.367Z,46.79
2023-01-04T06:42:42.243Z,46.87
2023-01-04T06:45:10.543Z,46.92
2023-01-04T06:47:38.169Z,46.76
2023-01-04T06:50:06.306Z,46.96
2023-01-04T06:52:35.781Z,46.96
2023-01-04T06:55:03.677Z,46.77
2023-01-04T06:57:31.807Z,46.91
2023-01-04T06:59:59.428Z,46.92
2023-01-04T07:02:28.312Z,46.88
2023-01-04T07:04:56.049Z,46.82
2023-01-04T07:07:23.728Z,46.83
2023-01-04T07:09:52.709Z,46.97
2023-01-04T07:12:20.319Z,46.89
2023-01-04T07:14:47.921Z,46.97
2023-01-04T07:17:15.559Z,46.90
2023-01-04T07:19:43.230Z,46.92
2023-01-04T07:22:10.860Z,46.99
2023-01-04T07:24:38.419Z,46.42
2023-01-04T07:27:07.862Z,46.41
2023-01-04T07:29:35.433Z,46.47
2023-01-04T07:32:03.797Z,46.88
2023-01-04T07:34:32.940Z,46.63
2023-01-04T07:37:00.505Z,46.77
2023-01-04T07:39:28.116Z,46.81
2023-01-04T07:41:55.731Z,46.82
2023-01-04T07:44:27.920Z,46.77
2023-01-04T07:46:55.551Z,46.81
2023-01-04T07:49:23.152Z,46.83
2023-01-04T07:51:50.826Z,46.83
2023-01-04T07:54:18.580Z,46.75
2023-01-04T07:56:46.571Z,46.92
2023-01-04T07:59:17.296Z,46.79
2023-01-04T08:01:46.561Z,46.90
2023-01-04T08:04:14.355Z,47.03
2023-01-04T08:06:42.106Z,46.89
2023-01-04T08:09:09.728Z,46.98
2023-01-04T08:11:37.348Z,47.05
2023-01-04T08:14:04.984Z,46.97
2023-01-04T08:16:33.060Z,46.92
2023-01-04T08:19:03.303Z,47.11
2023-01-04T08:21:31.104Z,46.93
2023-01-04T08:23:58.712Z,47.12
2023-01-04T08:26:26.293Z,46.92
2023-01-04T08:28:54.955Z,46.77
2023-01-04T08:31:23.266Z,46.95
2023-01-04T08:33:51.031Z,46.73
2023-01-04T08:36:26.314Z,46.80
2023-01-04T08:39:00.058Z,46.93
2023-01-04T08:41:56.500Z,46.86
2023-01-04T08:44:16.123Z,46.86
2023-01-04T08:46:43.808Z,47.00
2023-01-04T08:49:11.463Z,46.76
2023-01-04T08:51:40.573Z,47.10
2023-01-04T08:54:08.447Z,46.88
2023-01-04T08:56:36.247Z,46.95
2023-01-04T08:59:03.940Z,46.98
2023-01-04T09:01:32.661Z,47.13
2023-01-04T09:04:00.423Z,47.23
2023-01-04T09:06:28.256Z,47.15
2023-01-04T09:08:58.062Z,47.09
2023-01-04T09:11:25.741Z,47.26
2023-01-04T09:13:58.244Z,47.26
2023-01-04T09:16:30.302Z,47.25
2023-01-04T09:18:58.066Z,47.26
2023-01-04T09:21:25.683Z,47.01
2023-01-04T09:23:53.594Z,47.20
2023-01-04T09:26:23.600Z,47.05
2023-01-04T09:28:51.892Z,47.17
2023-01-04T09:31:20.326Z,47.30
2023-01-04T09:34:13.369Z,47.15
2023-01-04T09:36:35.595Z,47.32
2023-01-04T09:39:03.209Z,47.18
2023-01-04T09:41:32.446Z,47.12
2023-01-04T09:44:02.136Z,47.17
2023-01-04T09:46:31.525Z,47.42
2023-01-04T09:49:01.509Z,47.37
2023-01-04T09:51:32.385Z,47.37
2023-01-04T09:54:01.675Z,47.46
2023-01-04T09:56:30.203Z,47.50
2023-01-04T09:58:59.249Z,47.35
2023-01-04T10:01:27.396Z,47.35
2023-01-04T10:03:56.870Z,47.38
2023-01-04T10:06:24.490Z,47.35
2023-01-04T10:08:52.075Z,47.43
2023-01-04T10:11:29.036Z,47.35
2023-01-04T10:14:01.959Z,47.35
2023-01-04T10:17:11.432Z,47.34
2023-01-04T10:21:08.536Z,47.45
2023-01-04T10:22:13.282Z,47.33
2023-01-04T10:24:43.615Z,47.44
2023-01-04T10:27:12.906Z,47.59
2023-01-04T10:29:43.755Z,47.39
2023-01-04T10:32:14.376Z,47.39
2023-01-04T10:34:42.724Z,47.43
2023-01-04T10:37:13.630Z,47.39
2023-01-04T10:39:41.259Z,47.44
2023-01-04T10:42:11.377Z,47.54
2023-01-04T10:44:39.843Z,47.51
2023-01-04T10:47:10.651Z,47.41
2023-01-04T10:49:41.235Z,47.45
2023-01-04T10:52:10.404Z,47.39
2023-01-04T10:54:39.424Z,47.45
2023-01-04T10:57:08.530Z,47.66
2023-01-04T10:59:37.423Z,47.44
2023-01-04T11:02:08.083Z,47.59
2023-01-04T11:04:38.564Z,47.51
2023-01-04T11:07:10.833Z,47.56
2023-01-04T11:09:40.144Z,47.51
2023-01-04T11:12:07.808Z,47.54
2023-01-04T11:14:37.573Z,47.59
2023-01-04T11:17:06.522Z,47.58
2023-01-04T11:19:34.484Z,47.63
2023-01-04T11:22:06.293Z,47.46
2023-01-04T11:24:34.642Z,47.58
2023-01-04T11:27:05.299Z,47.75
2023-01-04T11:29:34.016Z,47.73
2023-01-04T11:32:02.896Z,47.93
2023-01-04T11:34:46.819Z,48.11
2023-01-04T11:37:25.637Z,47.99
2023-01-04T11:39:53.296Z,47.96
2023-01-04T11:42:21.093Z,47.83
2023-01-04T11:44:58.610Z,47.88
2023-01-04T11:47:29.801Z,47.88
2023-01-04T11:49:59.253Z,47.93
2023-01-04T11:52:30.652Z,47.84
2023-01-04T11:54:58.399Z,47.95
2023-01-04T11:57:26.017Z,47.82
2023-01-04T12:00:08.836Z,47.87
2023-01-04T12:05:29.936Z,47.97
2023-01-04T12:07:59.705Z,48.05
2023-01-04T12:10:27.857Z,48.15
2023-01-04T12:12:55.731Z,48.19
2023-01-04T12:15:26.641Z,48.08
2023-01-04T12:17:54.790Z,47.94
2023-01-04T12:20:22.449Z,47.91
2023-01-04T12:22:50.064Z,48.09
2023-01-04T12:25:31.793Z,48.07
2023-01-04T12:27:59.453Z,48.18
2023-01-04T12:30:34.139Z,48.18
2023-01-04T12:33:01.726Z,48.03
2023-01-04T12:36:06.277Z,48.04
2023-01-04T12:38:52.439Z,47.91
2023-01-04T12:41:21.490Z,48.11
2023-01-04T12:43:49.962Z,48.13
2023-01-04T12:46:54.375Z,48.02
2023-01-04T12:49:40.535Z,48.28
2023-01-04T12:52:34.771Z,48.36
2023-01-04T12:55:26.976Z,48.57
2023-01-04T12:57:56.004Z,48.60
2023-01-04T13:00:23.788Z,48.53
2023-01-04T13:03:21.759Z,48.31
2023-01-04T13:05:58.387Z,48.36
2023-01-04T13:08:26.112Z,48.38
2023-01-04T13:10:55.133Z,48.16
2023-01-04T13:13:26.806Z,48.47
2023-01-04T13:15:56.271Z,48.31
2023-01-04T13:18:28.460Z,48.25
2023-01-04T13:20:56.345Z,48.57
2023-01-04T13:23:24.033Z,48.46
2023-01-04T13:25:51.763Z,48.69
2023-01-04T13:28:19.412Z,48.67
2023-01-04T13:30:48.882Z,48.73
2023-01-04T13:33:27.297Z,48.63
2023-01-04T13:36:00.649Z,48.63
2023-01-04T13:38:28.265Z,48.63
2023-01-04T13:40:56.112Z,48.68
2023-01-04T13:43:34.553Z,48.60
2023-01-04T13:46:11.081Z,48.75
2023-01-04T13:48:39.112Z,48.81
2023-01-04T13:51:07.154Z,48.91
2023-01-04T13:53:34.793Z,48.84
2023-01-04T13:56:02.688Z,48.67
2023-01-04T13:58:31.531Z,48.74
2023-01-04T14:00:59.644Z,49.03
2023-01-04T14:03:32.823Z,48.81
2023-01-04T14:06:18.431Z,48.74
2023-01-04T14:08:47.397Z,48.73
2023-01-04T14:11:36.676Z,48.87
2023-01-04T14:14:04.359Z,48.86
2023-01-04T14:16:31.982Z,48.93
2023-01-04T14:19:01.029Z,48.94
2023-01-04T14:21:34.646Z,49.11
2023-01-04T14:24:02.272Z,49.07
2023-01-04T14:26:30.196Z,49.24
2023-01-04T14:28:57.767Z,49.09
2023-01-04T14:31:32.087Z,49.08
2023-01-04T14:34:01.939Z,48.97
2023-01-04T14:36:30.447Z,49.09
2023-01-04T14:39:02.214Z,49.13
2023-01-04T14:41:31.170Z,49.01
2023-01-04T14:44:04.634Z,49.11
2023-01-04T14:46:32.523Z,48.76
2023-01-04T14:49:01.559Z,48.95
2023-01-04T14:51:32.041Z,48.91
2023-01-04T14:53:59.600Z,49.14
2023-01-04T14:56:27.184Z,49.22
2023-01-04T14:58:55.714Z,49.23
2023-01-04T15:01:23.315Z,49.36
2023-01-04T15:03:50.996Z,49.48
2023-01-04T15:06:20.019Z,49.38
2023-01-04T15:08:48.721Z,49.39
2023-01-04T15:11:17.786Z,49.40
2023-01-04T15:13:45.419Z,49.31
2023-01-04T15:16:13.706Z,49.20
2023-01-04T15:18:41.368Z,49.16
2023-01-04T15:21:09.321Z,49.38
2023-01-04T15:23:38.271Z,49.27
2023-01-04T15:26:06.028Z,49.31
2023-01-04T15:28:33.693Z,49.38
2023-01-04T15:31:01.368Z,49.43
2023-01-04T15:33:32.071Z,49.35
2023-01-04T15:36:00.551Z,49.26
2023-01-04T15:38:28.358Z,49.41
2023-01-04T15:41:01.800Z,49.68
2023-01-04T15:43:34.138Z,49.69
2023-01-04T15:46:04.335Z,49.53
2023-01-04T15:48:31.974Z,49.52
2023-01-04T15:51:02.540Z,49.43
2023-01-04T15:53:30.156Z,49.51
2023-01-04T15:56:06.101Z,49.39
2023-01-04T15:58:33.699Z,49.48
2023-01-04T16:01:06.376Z,49.24
2023-01-04T16:03:35.232Z,49.38
2023-01-04T16:06:05.251Z,49.48
2023-01-04T16:08:32.829Z,49.40
2023-01-04T16:11:00.477Z,49.33
2023-01-04T16:13:29.451Z,49.39
2023-01-04T16:16:01.165Z,49.54
2023-01-04T16:18:32.354Z,49.61
2023-01-04T16:21:00.717Z,49.64
2023-01-04T16:23:28.357Z,49.55
2023-01-04T16:26:05.948Z,49.38
2023-01-04T16:28:34.943Z,49.47
2023-01-04T16:31:02.655Z,49.65
2023-01-04T16:33:30.481Z,49.68
2023-01-04T16:36:01.706Z,49.77
2023-01-04T16:38:29.319Z,49.64
2023-01-04T16:41:00.409Z,49.77
2023-01-04T16:43:28.498Z,49.72
2023-01-04T16:46:14.465Z,49.93
2023-01-04T16:48:42.071Z,49.97
2023-01-04T16:51:09.939Z,49.92
2023-01-04T16:53:37.539Z,49.75
2023-01-04T16:56:05.351Z,49.76
2023-01-04T16:58:32.951Z,49.84
2023-01-04T17:01:06.398Z,49.72
2023-01-04T17:03:35.471Z,49.70
2023-01-04T17:06:05.966Z,49.67
2023-01-04T17:08:33.568Z,49.46
2023-01-04T17:11:38.327Z,49.54
2023-01-04T17:13:52.600Z,49.69
2023-01-04T17:16:21.362Z,49.47
2023-01-04T17:18:50.414Z,49.53
2023-01-04T17:21:33.903Z,49.75
2023-01-04T17:24:02.536Z,49.83
2023-01-04T17:26:31.370Z,49.78
2023-01-04T17:28:59.100Z,49.66
2023-01-04T17:31:27.276Z,49.84
2023-01-04T17:33:56.560Z,49.73
2023-01-04T17:36:24.509Z,49.66
2023-01-04T17:38:52.138Z,49.70
2023-01-04T17:41:20.213Z,49.50
2023-01-04T17:43:48.108Z,49.49
2023-01-04T17:46:22.436Z,49.48
2023-01-04T17:49:04.100Z,49.72
2023-01-04T17:51:39.921Z,49.48
2023-01-04T17:54:08.347Z,49.74
2023-01-04T17:56:37.658Z,49.73
2023-01-04T17:59:06.655Z,49.68
2023-01-04T18:01:34.738Z,49.92
2023-01-04T18:04:02.717Z,49.90
2023-01-04T18:06:30.805Z,49.73
2023-01-04T18:09:05.305Z,49.75
2023-01-04T18:11:32.933Z,49.60
2023-01-04T18:14:02.918Z,49.69
2023-01-04T18:16:33.716Z,49.90
2023-01-04T18:19:01.332Z,49.89
2023-01-04T18:21:30.640Z,49.98
2023-01-04T18:27:19.898Z,49.94
2023-01-04T18:29:35.853Z,50.03
2023-01-04T18:32:03.926Z,49.99
2023-01-04T18:34:31.722Z,49.96
2023-01-04T18:36:59.354Z,49.91
2023-01-04T18:39:28.316Z,49.86
2023-01-04T18:41:56.167Z,49.72
2023-01-04T18:44:33.515Z,49.49
2023-01-04T18:47:02.417Z,49.65
2023-01-04T18:49:31.692Z,49.48
2023-01-04T18:51:59.340Z,49.45
2023-01-04T18:54:28.334Z,49.47
2023-01-04T18:57:00.685Z,49.47
2023-01-04T18:59:29.198Z,49.42
2023-01-04T19:02:00.935Z,49.50
2023-01-04T19:04:29.440Z,49.57
2023-01-04T19:06:57.091Z,49.45
2023-01-04T19:09:24.721Z,49.54
2023-01-04T19:11:53.702Z,49.54
2023-01-04T19:14:21.477Z,49.43
2023-01-04T19:16:49.231Z,49.35
2023-01-04T19:19:16.977Z,49.33
2023-01-04T19:21:44.766Z,49.49
2023-01-04T19:24:12.363Z,49.46
2023-01-04T19:26:40.034Z,49.61
2023-01-04T19:29:09.080Z,49.55
2023-01-04T19:31:36.699Z,49.60
2023-01-04T19:34:04.296Z,49.62
2023-01-04T19:36:31.888Z,49.92
2023-01-04T19:38:59.950Z,49.76
2023-01-04T19:41:33.864Z,49.60
2023-01-04T19:44:02.353Z,49.54
2023-01-04T19:46:31.788Z,49.64
2023-01-04T19:48:59.928Z,49.78
2023-01-04T19:51:28.911Z,49.94
2023-01-04T19:53:56.497Z,49.90
2023-01-04T19:56:24.116Z,49.73
2023-01-04T19:58:51.696Z,49.71
2023-01-04T20:01:19.953Z,49.74
2023-01-04T20:03:49.281Z,49.95
2023-01-04T20:06:16.906Z,49.79
2023-01-04T20:08:44.465Z,49.78
2023-01-04T20:11:12.636Z,49.97
2023-01-04T20:13:41.433Z,49.98
2023-01-04T20:16:09.226Z,49.85
2023-01-04T20:18:37.077Z,50.09
2023-01-04T20:21:09.446Z,50.04
2023-01-04T20:23:37.696Z,50.15
2023-01-04T20:26:11.184Z,50.20
2023-01-04T20:28:40.572Z,49.88
2023-01-04T20:31:09.658Z,49.86
2023-01-04T20:33:37.328Z,49.87
2023-01-04T20:36:05.625Z,49.87
2023-01-04T20:38:39.624Z,49.93
2023-01-04T20:41:07.915Z,49.94
2023-01-04T20:43:34.640Z,49.82
2023-01-04T20:46:02.646Z,49.83
2023-01-04T20:48:30.386Z,49.57
2023-01-04T20:50:58.151Z,49.58
2023-01-04T20:53:25.782Z,49.54
2023-01-04T20:55:54.848Z,49.67
2023-01-04T20:58:22.539Z,49.85
2023-01-04T21:00:50.394Z,49.73
2023-01-04T21:03:18.347Z,49.76
2023-01-04T21:05:46.127Z,49.73
2023-01-04T21:08:13.967Z,49.71
2023-01-04T21:10:41.883Z,49.61
2023-01-04T21:13:11.012Z,49.70
2023-01-04T21:15:38.773Z,49.76
2023-01-04T21:18:06.589Z,49.75
2023-01-04T21:20:34.233Z,49.86
2023-01-04T21:23:01.878Z,49.85
2023-01-04T21:25:29.659Z,49.76
2023-01-04T21:28:00.604Z,49.73
2023-01-04T21:30:29.630Z,49.80
2023-01-04T21:33:01.509Z,49.65
2023-01-04T21:35:29.590Z,49.72
2023-01-04T21:37:57.251Z,50.02
2023-01-04T21:40:24.887Z,50.27
2023-01-04T21:42:52.500Z,50.14
2023-01-04T21:45:20.326Z,49.85
2023-01-04T21:47:49.326Z,49.83
2023-01-04T21:50:17.438Z,49.68
2023-01-04T21:52:45.095Z,49.72
2023-01-04T21:55:12.739Z,49.74
2023-01-04T21:57:40.366Z,49.86
2023-01-04T22:00:09.027Z,49.81
2023-01-04T22:02:36.767Z,49.63
2023-01-04T22:05:06.323Z,49.63
2023-01-04T22:07:34.013Z,49.76
2023-01-04T22:10:01.617Z,49.68
2023-01-04T22:12:29.231Z,49.69
2023-01-04T22:14:56.897Z,49.72
2023-01-04T22:17:24.524Z,49.52
2023-01-04T22:19:52.080Z,49.85
2023-01-04T22:22:21.032Z,49.79
2023-01-04T22:24:48.765Z,49.95
2023-01-04T22:27:16.440Z,49.87
2023-01-04T22:29:44.102Z,49.94
2023-01-04T22:32:11.733Z,49.96
2023-01-04T22:34:39.336Z,49.86
2023-01-04T22:37:06.971Z,49.93
2023-01-04T22:39:35.925Z,49.86
2023-01-04T22:42:03.593Z,49.88
2023-01-04T22:44:31.509Z,49.99
2023-01-04T22:46:59.258Z,49.75
2023-01-04T22:49:26.931Z,49.89
2023-01-04T22:51:56.197Z,49.74
2023-01-04T22:54:23.867Z,49.94
2023-01-04T22:56:52.849Z,50.10
2023-01-04T22:59:20.469Z,50.18
2023-01-04T23:01:48.165Z,50.21
2023-01-04T23:04:16.744Z,50.30
2023-01-04T23:06:44.457Z,50.24
2023-01-04T23:09:12.956Z,50.22
2023-01-04T23:11:41.030Z,50.22
2023-01-04T23:14:12.036Z,50.25
2023-01-04T23:16:39.778Z,50.15
2023-01-04T23:19:07.478Z,50.15
2023-01-04T23:21:35.258Z,50.23
2023-01-04T23:24:03.047Z,50.22
2023-01-04T23:26:30.962Z,50.15
2023-01-04T23:28:58.655Z,50.14
2023-01-04T23:31:28.490Z,50.13
2023-01-04T23:33:56.877Z,50.02
2023-01-04T23:36:25.337Z,50.10
2023-01-04T23:38:53.173Z,50.16
2023-01-04T23:41:20.866Z,49.98
2023-01-04T23:43:48.619Z,50.02
2023-01-04T23:46:17.254Z,50.09
2023-01-04T23:48:46.308Z,50.03
2023-01-04T23:51:14.173Z,50.15
2023-01-04T23:53:41.906Z,50.12
2023-01-04T23:56:13.583Z,49.97
2023-01-04T23:58:41.224Z,49.91
